createdAt,value
2022-09-20T00:01:42.595Z,15.19
2022-09-20T00:04:10.282Z,15.29
2022-09-20T00:06:37.225Z,15.02
2022-09-20T00:09:05.555Z,15.01
2022-09-20T00:11:34.654Z,14.72
2022-09-20T00:14:02.752Z,14.92
2022-09-20T00:16:32.185Z,14.49
2022-09-20T00:19:00.584Z,14.79
2022-09-20T00:21:29.676Z,14.91
2022-09-20T00:23:57.789Z,14.54
2022-09-20T00:26:26.117Z,14.92
2022-09-20T00:28:53.188Z,14.58
2022-09-20T00:31:20.362Z,14.90
2022-09-20T00:34:05.853Z,14.96
2022-09-20T00:36:32.740Z,14.82
2022-09-20T00:39:00.512Z,14.33
2022-09-20T00:41:27.891Z,14.86
2022-09-20T00:43:55.222Z,15.14
2022-09-20T00:46:30.288Z,15.23
2022-09-20T00:49:04.403Z,15.11
2022-09-20T00:51:35.661Z,15.16
2022-09-20T00:54:04.121Z,15.10
2022-09-20T00:56:36.223Z,15.33
2022-09-20T00:59:11.917Z,15.11
2022-09-20T01:01:38.938Z,15.04
2022-09-20T01:04:06.223Z,14.88
2022-09-20T01:06:33.805Z,15.18
2022-09-20T01:09:02.692Z,15.10
2022-09-20T01:11:31.020Z,14.91
2022-09-20T01:13:57.930Z,15.38
2022-09-20T01:16:25.509Z,15.07
2022-09-20T01:18:52.944Z,15.11
2022-09-20T01:21:20.477Z,14.47
2022-09-20T01:24:05.754Z,14.63
2022-09-20T01:26:32.508Z,14.91
2022-09-20T01:29:10.145Z,14.09
2022-09-20T01:31:42.843Z,14.43
2022-09-20T01:34:25.187Z,14.89
2022-09-20T01:37:10.534Z,14.31
2022-09-20T01:39:58.924Z,14.35
2022-09-20T01:42:34.349Z,14.30
2022-09-20T01:45:19.132Z,14.05
2022-09-20T01:48:10.343Z,14.26
2022-09-20T01:51:14.683Z,14.03
2022-09-20T01:54:03.641Z,13.63
2022-09-20T01:56:52.558Z,13.83
2022-09-20T01:59:38.104Z,14.07
2022-09-20T02:02:28.916Z,14.15
2022-09-20T02:05:14.045Z,13.93
2022-09-20T02:08:01.055Z,14.10
2022-09-20T02:10:53.550Z,13.86
2022-09-20T02:13:33.914Z,14.02
2022-09-20T02:16:00.693Z,14.26
2022-09-20T02:18:48.197Z,14.40
2022-09-20T02:21:26.006Z,13.97
2022-09-20T02:24:40.871Z,14.06
2022-09-20T02:27:26.068Z,14.10
2022-09-20T02:30:05.101Z,14.13
2022-09-20T02:32:53.387Z,13.80
2022-09-20T02:35:29.169Z,14.34
2022-09-20T02:38:12.134Z,13.98
2022-09-20T02:40:59.176Z,14.87
2022-09-20T02:43:44.375Z,14.94
2022-09-20T02:46:26.395Z,14.99
2022-09-20T02:49:02.105Z,14.67
2022-09-20T02:51:40.013Z,15.39
2022-09-20T02:54:13.991Z,15.45
2022-09-20T02:57:00.764Z,15.55
2022-09-20T02:59:47.347Z,15.23
2022-09-20T03:02:20.133Z,15.33
2022-09-20T03:05:02.279Z,14.99
2022-09-20T03:07:47.673Z,14.83
2022-09-20T03:10:26.662Z,15.02
2022-09-20T03:13:11.269Z,15.31
2022-09-20T03:15:52.424Z,15.36
2022-09-20T03:18:29.921Z,15.15
2022-09-20T03:21:32.175Z,15.26
2022-09-20T03:24:34.735Z,15.01
2022-09-20T03:27:37.101Z,15.38
2022-09-20T03:30:28.987Z,15.19
2022-09-20T03:33:19.783Z,15.15
2022-09-20T03:36:02.080Z,14.60
2022-09-20T03:38:42.631Z,13.76
2022-09-20T03:41:34.269Z,14.38
2022-09-20T03:44:39.478Z,14.38
2022-09-20T03:47:28.139Z,14.42
2022-09-20T03:50:11.423Z,14.51
2022-09-20T03:52:44.842Z,14.52
2022-09-20T03:55:17.899Z,13.68
2022-09-20T03:57:44.736Z,14.14
2022-09-20T04:00:23.315Z,13.79
2022-09-20T04:02:56.180Z,13.95
2022-09-20T04:06:05.094Z,13.70
2022-09-20T04:08:57.016Z,13.72
2022-09-20T04:11:30.367Z,13.56
2022-09-20T04:14:10.613Z,13.60
2022-09-20T04:16:46.570Z,13.53
2022-09-20T04:19:33.228Z,13.60
2022-09-20T04:22:01.354Z,13.57
2022-09-20T04:24:33.997Z,13.56
2022-09-20T04:27:02.706Z,13.89
2022-09-20T04:29:37.096Z,13.69
2022-09-20T04:32:25.857Z,14.17
2022-09-20T04:35:25.147Z,14.17
2022-09-20T04:37:52.313Z,14.08
2022-09-20T04:40:37.925Z,14.17
2022-09-20T04:43:17.680Z,13.98
2022-09-20T04:46:06.938Z,14.16
2022-09-20T04:48:40.668Z,13.65
2022-09-20T04:51:52.088Z,13.81
2022-09-20T04:54:51.769Z,13.83
2022-09-20T04:57:41.685Z,13.68
2022-09-20T05:00:16.063Z,13.87
2022-09-20T05:03:01.671Z,13.91
2022-09-20T05:06:03.359Z,13.68
2022-09-20T05:08:49.439Z,14.45
2022-09-20T05:11:42.517Z,14.50
2022-09-20T05:14:37.890Z,14.57
2022-09-20T05:17:16.112Z,15.15
2022-09-20T05:19:56.188Z,15.62
2022-09-20T05:23:04.906Z,16.46
2022-09-20T05:25:43.223Z,16.33
2022-09-20T05:28:16.533Z,17.24
2022-09-20T05:31:03.631Z,17.83
2022-09-20T05:34:00.751Z,18.32
2022-09-20T05:36:50.874Z,18.46
2022-09-20T05:39:44.988Z,18.98
2022-09-20T05:42:15.171Z,20.04
2022-09-20T05:44:55.291Z,19.42
2022-09-20T05:47:43.505Z,20.18
2022-09-20T05:50:28.369Z,20.21
2022-09-20T05:53:02.486Z,20.69
2022-09-20T05:55:43.696Z,21.05
2022-09-20T05:58:44.644Z,21.07
2022-09-20T06:01:31.778Z,20.02
2022-09-20T06:04:21.662Z,18.33
2022-09-20T06:06:56.068Z,17.62
2022-09-20T06:09:58.172Z,17.89
2022-09-20T06:12:58.210Z,19.01
2022-09-20T06:15:37.570Z,21.15
2022-09-20T06:18:19.330Z,21.95
2022-09-20T06:21:01.997Z,22.61
2022-09-20T06:23:29.792Z,23.02
2022-09-20T06:26:00.364Z,22.53
2022-09-20T06:28:30.989Z,22.18
2022-09-20T06:30:58.294Z,21.10
2022-09-20T06:33:27.017Z,22.86
2022-09-20T06:35:59.302Z,21.88
2022-09-20T06:39:26.299Z,20.67
2022-09-20T06:41:54.348Z,21.04
2022-09-20T06:44:21.426Z,20.65
2022-09-20T06:46:48.289Z,20.23
2022-09-20T06:49:16.262Z,19.55
2022-09-20T06:51:43.688Z,19.85
2022-09-20T06:54:17.331Z,19.41
2022-09-20T06:56:46.839Z,20.53
2022-09-20T06:59:14.449Z,19.75
2022-09-20T07:01:41.677Z,20.34
2022-09-20T07:04:09.890Z,19.87
2022-09-20T07:06:37.114Z,16.95
2022-09-20T07:09:05.037Z,18.38
2022-09-20T07:11:36.258Z,19.11
2022-09-20T07:14:25.729Z,19.08
2022-09-20T07:16:53.435Z,19.35
2022-09-20T07:19:32.242Z,19.33
2022-09-20T07:24:45.112Z,18.47
2022-09-20T07:27:12.201Z,18.85
2022-09-20T07:29:41.085Z,17.30
2022-09-20T07:32:15.533Z,18.59
2022-09-20T07:34:42.881Z,17.00
2022-09-20T07:37:09.911Z,17.52
2022-09-20T07:39:36.732Z,17.43
2022-09-20T07:42:06.448Z,17.47
2022-09-20T07:44:33.408Z,17.34
2022-09-20T07:47:00.990Z,16.64
2022-09-20T07:49:30.536Z,17.01
2022-09-20T07:51:57.703Z,16.51
2022-09-20T07:54:24.621Z,16.54
2022-09-20T07:56:51.571Z,16.66
2022-09-20T07:59:18.549Z,16.37
2022-09-20T08:01:45.467Z,17.14
2022-09-20T08:04:12.373Z,16.58
2022-09-20T08:06:41.169Z,16.78
2022-09-20T08:09:11.203Z,17.20
2022-09-20T08:11:39.764Z,16.08
2022-09-20T08:14:08.889Z,16.68
2022-09-20T08:16:41.303Z,16.28
2022-09-20T08:19:08.528Z,16.35
2022-09-20T08:21:36.291Z,17.06
2022-09-20T08:24:04.191Z,16.74
2022-09-20T08:26:35.953Z,16.97
2022-09-20T08:29:03.303Z,17.32
2022-09-20T08:31:37.063Z,17.28
2022-09-20T08:34:06.785Z,17.74
2022-09-20T08:36:36.987Z,17.48
2022-09-20T08:42:13.642Z,16.91
2022-09-20T08:45:01.593Z,17.75
2022-09-20T08:47:31.891Z,18.04
2022-09-20T08:49:59.765Z,18.24
2022-09-20T08:52:36.996Z,17.45
2022-09-20T08:55:23.538Z,17.31
2022-09-20T08:57:53.660Z,17.60
2022-09-20T09:00:24.855Z,17.57
2022-09-20T09:03:13.159Z,16.83
2022-09-20T09:05:52.898Z,16.72
2022-09-20T09:08:22.546Z,16.38
2022-09-20T09:10:54.979Z,16.47
2022-09-20T09:13:30.733Z,17.98
2022-09-20T09:16:03.548Z,17.35
2022-09-20T09:18:36.885Z,16.41
2022-09-20T09:21:05.243Z,17.01
2022-09-20T09:23:41.614Z,17.86
2022-09-20T09:26:29.639Z,17.49
2022-09-20T09:29:19.345Z,17.56
2022-09-20T09:31:55.504Z,16.70
2022-09-20T09:34:24.310Z,16.83
2022-09-20T09:37:00.125Z,16.27
2022-09-20T09:39:36.016Z,16.15
2022-09-20T09:42:23.202Z,17.10
2022-09-20T09:44:51.062Z,16.60
2022-09-20T09:47:28.662Z,17.51
2022-09-20T09:50:07.415Z,18.64
2022-09-20T09:52:36.902Z,19.35
2022-09-20T09:55:11.152Z,18.07
2022-09-20T09:58:13.315Z,17.29
2022-09-20T10:00:46.642Z,17.10
2022-09-20T10:03:40.569Z,16.82
2022-09-20T10:06:22.555Z,17.17
2022-09-20T10:09:13.849Z,17.12
2022-09-20T10:11:58.627Z,16.80
2022-09-20T10:14:29.882Z,17.00
2022-09-20T10:17:08.811Z,17.18
2022-09-20T10:19:57.361Z,16.64
2022-09-20T10:22:39.095Z,15.75
2022-09-20T10:25:24.892Z,15.96
2022-09-20T10:28:06.639Z,17.53
2022-09-20T10:31:15.644Z,18.20
2022-09-20T10:34:10.438Z,18.36
2022-09-20T10:36:47.478Z,17.18
2022-09-20T10:39:35.084Z,16.74
2022-09-20T10:42:23.231Z,17.44
2022-09-20T10:44:55.719Z,16.60
2022-09-20T10:47:29.038Z,18.21
2022-09-20T10:50:23.203Z,17.70
2022-09-20T10:53:13.282Z,18.16
2022-09-20T10:56:19.118Z,17.99
2022-09-20T10:58:52.529Z,17.81
2022-09-20T11:01:22.778Z,17.89
2022-09-20T11:04:14.429Z,18.09
2022-09-20T11:07:02.931Z,16.61
2022-09-20T11:09:59.848Z,17.29
2022-09-20T11:12:44.508Z,18.10
2022-09-20T11:15:31.180Z,17.30
2022-09-20T11:18:13.219Z,18.35
2022-09-20T11:20:46.781Z,19.54
2022-09-20T11:23:21.316Z,17.81
2022-09-20T11:26:02.571Z,16.47
2022-09-20T11:28:41.561Z,17.52
2022-09-20T11:31:11.334Z,18.85
2022-09-20T11:33:49.461Z,18.05
2022-09-20T11:36:41.373Z,19.67
2022-09-20T11:39:42.944Z,21.04
2022-09-20T11:42:20.523Z,19.23
2022-09-20T11:44:47.678Z,20.11
2022-09-20T11:47:53.283Z,20.92
2022-09-20T11:50:38.626Z,19.63
2022-09-20T11:53:36.592Z,20.15
2022-09-20T11:56:11.166Z,19.96
2022-09-20T11:59:05.899Z,21.08
2022-09-20T12:01:37.036Z,20.78
2022-09-20T12:04:32.860Z,21.70
2022-09-20T12:07:26.665Z,20.10
2022-09-20T12:09:57.109Z,19.79
2022-09-20T12:12:37.557Z,18.26
2022-09-20T12:15:27.555Z,18.81
2022-09-20T12:17:57.442Z,18.11
2022-09-20T12:20:36.253Z,17.32
2022-09-20T12:23:42.935Z,16.22
2022-09-20T12:26:23.141Z,15.65
2022-09-20T12:28:52.084Z,15.74
2022-09-20T12:31:19.223Z,16.10
2022-09-20T12:34:03.888Z,15.86
2022-09-20T12:36:36.417Z,16.49
2022-09-20T12:39:16.386Z,16.58
2022-09-20T12:41:51.707Z,16.28
2022-09-20T12:44:49.676Z,16.75
2022-09-20T12:47:21.453Z,17.20
2022-09-20T12:50:06.848Z,17.85
2022-09-20T12:53:00.474Z,18.50
2022-09-20T12:55:30.128Z,18.34
2022-09-20T12:58:04.148Z,18.36
2022-09-20T13:00:48.039Z,18.61
2022-09-20T13:03:23.976Z,18.10
2022-09-20T13:06:19.993Z,18.73
2022-09-20T13:08:52.881Z,18.77
2022-09-20T13:11:40.811Z,20.04
2022-09-20T13:14:23.049Z,19.59
2022-09-20T13:16:53.080Z,20.06
2022-09-20T13:19:28.844Z,19.80
2022-09-20T13:22:03.987Z,18.95
2022-09-20T13:24:38.204Z,18.81
2022-09-20T13:27:21.548Z,17.52
2022-09-20T13:29:48.641Z,18.38
2022-09-20T13:32:25.722Z,17.97
2022-09-20T13:35:10.870Z,17.44
2022-09-20T13:37:38.803Z,18.57
2022-09-20T13:40:07.346Z,19.33
2022-09-20T13:42:35.900Z,18.94
2022-09-20T13:45:04.458Z,18.97
2022-09-20T13:47:32.441Z,19.47
2022-09-20T13:50:23.882Z,19.19
2022-09-20T13:52:55.516Z,19.50
2022-09-20T13:55:28.803Z,19.57
2022-09-20T13:57:57.691Z,19.14
2022-09-20T14:00:28.027Z,19.24
2022-09-20T14:02:55.270Z,18.41
2022-09-20T14:05:25.385Z,18.41
2022-09-20T14:07:52.689Z,18.63
2022-09-20T14:10:46.077Z,17.77
2022-09-20T14:13:16.722Z,16.20
2022-09-20T14:15:48.193Z,15.53
2022-09-20T14:18:17.712Z,14.47
2022-09-20T14:20:45.335Z,14.63
2022-09-20T14:23:26.021Z,15.14
2022-09-20T14:26:20.980Z,14.48
2022-09-20T14:28:48.165Z,15.64
2022-09-20T14:31:17.681Z,16.40
2022-09-20T14:33:50.719Z,16.08
2022-09-20T14:36:23.447Z,16.40
2022-09-20T14:38:56.984Z,17.26
2022-09-20T14:41:34.151Z,16.89
2022-09-20T14:44:05.739Z,16.22
2022-09-20T14:46:38.906Z,16.33
2022-09-20T14:49:26.852Z,16.22
2022-09-20T14:51:54.123Z,16.70
2022-09-20T14:54:31.021Z,16.43
2022-09-20T14:56:58.962Z,15.40
2022-09-20T14:59:27.407Z,15.91
2022-09-20T15:01:57.955Z,16.30
2022-09-20T15:04:27.550Z,16.00
2022-09-20T15:06:55.599Z,15.60
2022-09-20T15:09:22.863Z,15.59
2022-09-20T15:12:25.516Z,15.95
2022-09-20T15:14:52.469Z,14.82
2022-09-20T15:17:21.197Z,15.14
2022-09-20T15:19:48.941Z,15.29
2022-09-20T15:22:16.230Z,15.09
2022-09-20T15:24:43.183Z,15.92
2022-09-20T15:27:12.312Z,16.44
2022-09-20T15:29:39.301Z,16.37
2022-09-20T15:32:07.072Z,16.56
2022-09-20T15:34:33.978Z,15.91
2022-09-20T15:37:00.814Z,15.66
2022-09-20T15:39:28.158Z,16.28
2022-09-20T15:41:55.039Z,15.25
2022-09-20T15:44:22.270Z,15.66
2022-09-20T15:46:51.142Z,15.37
2022-09-20T15:49:18.081Z,14.83
2022-09-20T15:51:46.463Z,14.24
2022-09-20T15:54:14.280Z,15.12
2022-09-20T15:56:41.694Z,14.54
2022-09-20T15:59:10.222Z,14.85
2022-09-20T16:01:43.824Z,14.40
2022-09-20T16:04:12.751Z,14.32
2022-09-20T16:06:41.122Z,14.11
2022-09-20T16:09:08.376Z,14.55
2022-09-20T16:11:35.896Z,13.76
2022-09-20T16:14:03.158Z,13.72
2022-09-20T16:16:30.963Z,14.08
2022-09-20T16:19:16.415Z,14.81
2022-09-20T16:21:47.134Z,14.82
2022-09-20T16:24:14.166Z,14.89
2022-09-20T16:26:41.167Z,15.68
2022-09-20T16:29:08.176Z,15.54
2022-09-20T16:31:48.909Z,17.19
2022-09-20T16:34:17.899Z,17.78
2022-09-20T16:36:45.967Z,16.78
2022-09-20T16:39:14.533Z,17.08
2022-09-20T16:41:41.747Z,17.38
2022-09-20T16:44:09.185Z,18.21
2022-09-20T16:46:39.449Z,17.80
2022-09-20T16:49:09.597Z,18.19
2022-09-20T16:51:38.335Z,17.44
2022-09-20T16:54:07.524Z,17.53
2022-09-20T16:56:35.631Z,17.78
2022-09-20T16:59:03.252Z,17.83
2022-09-20T17:01:31.705Z,16.67
2022-09-20T17:03:59.151Z,16.49
2022-09-20T17:06:27.000Z,17.34
2022-09-20T17:08:58.815Z,17.48
2022-09-20T17:11:28.532Z,17.58
2022-09-20T17:13:56.135Z,16.86
2022-09-20T17:16:30.074Z,15.78
2022-09-20T17:19:02.034Z,16.10
2022-09-20T17:21:30.300Z,16.78
2022-09-20T17:23:58.926Z,16.84
2022-09-20T17:26:40.406Z,16.94
2022-09-20T17:29:10.460Z,16.66
2022-09-20T17:31:39.513Z,15.87
2022-09-20T17:34:08.660Z,15.76
2022-09-20T17:36:39.879Z,15.44
2022-09-20T17:39:07.446Z,15.10
2022-09-20T17:41:34.273Z,14.97
2022-09-20T17:44:08.326Z,15.07
2022-09-20T17:46:37.325Z,14.77
2022-09-20T17:49:06.959Z,14.69
2022-09-20T17:51:43.405Z,15.62
2022-09-20T17:54:14.317Z,15.84
2022-09-20T17:56:48.931Z,15.33
2022-09-20T17:59:16.811Z,15.17
2022-09-20T18:01:45.492Z,15.47
2022-09-20T18:04:12.686Z,15.53
2022-09-20T18:06:47.467Z,14.82
2022-09-20T18:09:16.189Z,15.55
2022-09-20T18:11:49.759Z,15.42
2022-09-20T18:14:22.813Z,15.00
2022-09-20T18:16:53.170Z,14.55
2022-09-20T18:19:21.632Z,14.32
2022-09-20T18:21:48.915Z,14.38
2022-09-20T18:24:15.850Z,14.61
2022-09-20T18:26:42.711Z,14.99
2022-09-20T18:29:12.497Z,15.69
2022-09-20T18:31:46.323Z,15.57
2022-09-20T18:34:18.589Z,15.05
2022-09-20T18:36:53.240Z,14.97
2022-09-20T18:39:24.080Z,15.28
2022-09-20T18:41:51.088Z,14.04
2022-09-20T18:44:20.980Z,14.24
2022-09-20T18:46:48.365Z,13.79
2022-09-20T18:49:17.104Z,12.68
2022-09-20T18:51:44.924Z,13.71
2022-09-20T18:54:12.238Z,13.18
2022-09-20T18:56:43.589Z,12.71
2022-09-20T18:59:18.583Z,12.91
2022-09-20T19:01:54.450Z,13.29
2022-09-20T19:04:52.171Z,13.63
2022-09-20T19:07:27.893Z,12.73
2022-09-20T19:10:06.768Z,13.37
2022-09-20T19:12:50.431Z,13.16
2022-09-20T19:15:40.252Z,12.96
2022-09-20T19:18:25.483Z,12.73
2022-09-20T19:20:59.707Z,12.25
2022-09-20T19:24:03.554Z,12.98
2022-09-20T19:26:38.227Z,13.07
2022-09-20T19:29:16.179Z,12.17
2022-09-20T19:31:43.313Z,12.54
2022-09-20T19:34:18.435Z,12.64
2022-09-20T19:36:59.636Z,11.93
2022-09-20T19:39:48.029Z,11.65
2022-09-20T19:42:24.999Z,11.88
2022-09-20T19:45:16.571Z,12.26
2022-09-20T19:47:58.959Z,12.40
2022-09-20T19:50:39.018Z,12.79
2022-09-20T19:53:06.167Z,12.30
2022-09-20T19:55:35.251Z,12.00
2022-09-20T19:58:02.590Z,11.79
2022-09-20T20:00:31.572Z,12.15
2022-09-20T20:02:58.879Z,11.25
2022-09-20T20:05:27.755Z,12.23
2022-09-20T20:08:18.121Z,12.20
2022-09-20T20:11:42.158Z,12.36
2022-09-20T20:14:24.412Z,11.50
2022-09-20T20:17:05.420Z,12.15
2022-09-20T20:19:37.238Z,12.52
2022-09-20T20:22:28.570Z,12.87
2022-09-20T20:24:56.860Z,12.20
2022-09-20T20:27:25.442Z,12.45
2022-09-20T20:29:52.455Z,12.51
2022-09-20T20:32:19.343Z,12.81
2022-09-20T20:34:47.046Z,12.72
2022-09-20T20:37:14.193Z,12.46
2022-09-20T20:39:41.071Z,12.43
2022-09-20T20:42:12.088Z,12.76
2022-09-20T20:44:39.015Z,12.32
2022-09-20T20:47:07.300Z,12.09
2022-09-20T20:49:34.300Z,11.84
2022-09-20T20:52:04.924Z,12.50
2022-09-20T20:54:32.768Z,12.32
2022-09-20T20:56:59.803Z,11.66
2022-09-20T20:59:27.121Z,12.20
2022-09-20T21:01:54.216Z,12.08
2022-09-20T21:04:21.872Z,12.30
2022-09-20T21:06:50.274Z,11.75
2022-09-20T21:09:17.213Z,12.16
2022-09-20T21:11:44.554Z,11.86
2022-09-20T21:14:12.847Z,11.74
2022-09-20T21:16:45.213Z,11.96
2022-09-20T21:19:15.755Z,11.52
2022-09-20T21:21:44.596Z,11.62
2022-09-20T21:24:14.893Z,11.88
2022-09-20T21:26:41.756Z,11.03
2022-09-20T21:29:11.105Z,11.22
2022-09-20T21:31:39.712Z,11.86
2022-09-20T21:34:08.095Z,12.04
2022-09-20T21:36:35.959Z,12.37
2022-09-20T21:39:03.148Z,11.64
2022-09-20T21:41:32.229Z,11.84
2022-09-20T21:44:00.687Z,12.34
2022-09-20T21:46:29.974Z,12.79
2022-09-20T21:48:58.458Z,12.55
2022-09-20T21:51:26.440Z,12.41
2022-09-20T21:53:58.181Z,12.65
2022-09-20T21:56:27.712Z,12.83
2022-09-20T21:58:55.053Z,13.62
2022-09-20T22:01:24.006Z,13.49
2022-09-20T22:03:59.100Z,12.51
2022-09-20T22:06:33.978Z,12.49
2022-09-20T22:09:08.950Z,13.37
2022-09-20T22:11:41.043Z,12.78
2022-09-20T22:14:08.881Z,11.67
2022-09-20T22:16:38.223Z,12.94
2022-09-20T22:19:07.199Z,12.75
2022-09-20T22:21:36.920Z,12.77
2022-09-20T22:24:09.203Z,12.49
2022-09-20T22:26:38.512Z,12.42
2022-09-20T22:29:06.648Z,12.52
2022-09-20T22:31:36.138Z,13.14
2022-09-20T22:34:05.792Z,13.50
2022-09-20T22:36:37.459Z,12.95
2022-09-20T22:39:07.452Z,13.01
2022-09-20T22:41:35.222Z,12.74
2022-09-20T22:44:02.486Z,12.50
2022-09-20T22:46:30.570Z,12.20
2022-09-20T22:48:57.702Z,13.09
2022-09-20T22:51:31.536Z,13.62
2022-09-20T22:53:58.436Z,13.67
2022-09-20T22:56:29.589Z,13.47
2022-09-20T22:59:00.764Z,13.04
2022-09-20T23:01:30.139Z,12.98
2022-09-20T23:04:01.095Z,12.84
2022-09-20T23:06:31.653Z,12.64
2022-09-20T23:09:00.618Z,13.81
2022-09-20T23:11:28.431Z,13.64
2022-09-20T23:13:57.363Z,13.71
2022-09-20T23:16:30.955Z,12.80
2022-09-20T23:18:59.566Z,12.84
2022-09-20T23:21:26.935Z,13.73
2022-09-20T23:24:01.417Z,13.69
2022-09-20T23:26:30.558Z,14.05
2022-09-20T23:28:59.824Z,13.69
2022-09-20T23:31:27.860Z,13.40
2022-09-20T23:33:59.891Z,13.12
2022-09-20T23:36:28.974Z,12.74
2022-09-20T23:38:57.125Z,13.68
2022-09-20T23:41:25.394Z,14.28
2022-09-20T23:43:52.556Z,13.49
2022-09-20T23:46:21.411Z,13.20
2022-09-20T23:48:50.313Z,13.50
2022-09-20T23:51:19.885Z,13.65
2022-09-20T23:53:46.730Z,12.68
2022-09-20T23:56:13.710Z,12.45
2022-09-20T23:58:42.182Z,12.85
